Time;durP1;ratioP1;P1;durP2;ratioP2;P2;SDS_P1;SDS_P2;PMS_P1;PMS_P2;Temp;Humidity;BMP_temperature;BMP_pressure;BME280_temperature;BME280_humidity;BME280_pressure;Samples;Min_cycle;Max_cycle;Signal;HPM_P1;HPM_P2
2022/06/08 00:02:02;;;;;;;17.52;12.30;;;11.60;99.90;;;;;;5011736;28;20620;-57
2022/06/08 00:04:28;;;;;;;15.65;11.25;;;11.50;99.90;;;;;;5011501;28;20042;-57
2022/06/08 00:06:54;;;;;;;15.35;10.43;;;11.60;99.90;;;;;;5011896;28;20089;-57
2022/06/08 00:09:20;;;;;;;19.27;11.85;;;12.10;99.90;;;;;;5011602;28;20114;-57
2022/06/08 00:11:46;;;;;;;16.70;10.95;;;11.40;99.90;;;;;;5011791;28;20159;-57
2022/06/08 00:14:15;;;;;;;15.10;10.05;;;11.40;99.90;;;;;;5011422;28;20073;-57
2022/06/08 00:16:41;;;;;;;18.33;11.40;;;10.90;99.90;;;;;;5011363;28;20516;-57
2022/06/08 00:19:07;;;;;;;16.08;11.18;;;11.40;99.90;;;;;;5011718;28;20049;-57
2022/06/08 00:21:34;;;;;;;20.65;12.05;;;11.30;99.90;;;;;;5011886;28;20125;-57
2022/06/08 00:23:59;;;;;;;18.67;11.80;;;11.40;99.90;;;;;;5011506;28;20433;-57
2022/06/08 00:26:25;;;;;;;15.93;10.77;;;11.20;99.90;;;;;;5011133;28;20096;-57
2022/06/08 00:28:52;;;;;;;14.80;10.23;;;11.40;99.90;;;;;;5011368;28;20497;-57
2022/06/08 00:31:18;;;;;;;16.70;10.27;;;;;;;;;;5011734;28;20034;-56
2022/06/08 00:33:48;;;;;;;14.70;10.23;;;10.90;99.90;;;;;;5011670;28;20112;-56
2022/06/08 00:36:15;;;;;;;12.93;10.32;;;11.20;99.90;;;;;;5011542;28;20042;-57
2022/06/08 00:38:41;;;;;;;13.27;9.45;;;11.70;99.90;;;;;;5011317;28;20092;-57
2022/06/08 00:41:36;;;;;;;13.98;9.93;;;11.00;99.90;;;;;;5011274;28;20485;-57
2022/06/08 00:44:06;;;;;;;14.35;10.30;;;11.50;99.90;;;;;;5011866;28;20053;-57
2022/06/08 00:46:33;;;;;;;13.82;9.85;;;11.50;99.90;;;;;;5011385;28;20046;-56
2022/06/08 00:49:05;;;;;;;16.75;10.60;;;11.60;99.90;;;;;;5011321;28;20371;-57
2022/06/08 00:51:32;;;;;;;13.25;9.35;;;12.00;99.90;;;;;;5011246;28;20034;-57
2022/06/08 00:54:01;;;;;;;15.55;10.13;;;11.40;99.90;;;;;;4993475;28;20037;-57
2022/06/08 00:56:33;;;;;;;12.98;10.80;;;11.40;99.90;;;;;;4993688;28;20052;-57
2022/06/08 00:59:00;;;;;;;13.93;9.90;;;11.80;99.90;;;;;;4993847;28;20497;-57
2022/06/08 01:01:26;;;;;;;16.60;10.85;;;11.70;99.90;;;;;;5049779;22;20049;-52
2022/06/08 01:04:09;;;;;;;16.30;10.90;;;11.60;99.90;;;;;;5055083;28;20068;-52
2022/06/08 01:06:35;;;;;;;13.88;10.45;;;11.70;99.90;;;;;;5054783;28;20120;-54
2022/06/08 01:09:02;;;;;;;15.65;10.07;;;11.80;99.90;;;;;;5054740;28;20037;-52
2022/06/08 01:11:44;;;;;;;18.63;11.27;;;11.70;99.90;;;;;;5054863;28;20055;-52
2022/06/08 01:14:12;;;;;;;19.25;13.02;;;12.20;99.90;;;;;;5037036;28;20103;-54
2022/06/08 01:16:42;;;;;;;23.40;15.73;;;12.00;99.90;;;;;;5054805;28;20045;-53
2022/06/08 01:19:10;;;;;;;26.20;15.60;;;11.90;99.90;;;;;;5054676;28;20491;-51
2022/06/08 01:21:36;;;;;;;27.92;17.27;;;12.70;99.90;;;;;;5054699;28;20058;-54
2022/06/08 01:24:05;;;;;;;26.05;15.90;;;12.00;99.90;;;;;;5054680;28;20483;-53
2022/06/08 01:26:51;;;;;;;23.17;15.90;;;12.00;99.90;;;;;;5054384;28;20045;-54
2022/06/08 01:29:37;;;;;;;24.58;16.10;;;12.10;99.90;;;;;;5054107;28;20041;-59
2022/06/08 01:32:20;;;;;;;23.02;16.63;;;12.10;99.90;;;;;;5055365;28;20112;-60
2022/06/08 01:35:11;;;;;;;29.10;17.55;;;12.20;99.90;;;;;;5054779;28;20175;-60
2022/06/08 01:37:48;;;;;;;27.73;17.10;;;12.20;99.90;;;;;;5054448;28;20392;-59
2022/06/08 01:40:32;;;;;;;27.60;18.55;;;12.20;99.90;;;;;;5054420;28;20067;-60
2022/06/08 01:43:16;;;;;;;23.02;17.00;;;12.30;99.90;;;;;;5054402;28;20126;-59
2022/06/08 01:45:56;;;;;;;31.13;17.77;;;12.30;99.90;;;;;;5054178;28;20052;-60
2022/06/08 01:48:48;;;;;;;26.60;18.85;;;12.40;99.90;;;;;;5053989;28;20484;-59
2022/06/08 01:51:39;;;;;;;30.95;19.90;;;12.30;99.90;;;;;;5036796;28;20131;-59
2022/06/08 01:54:17;;;;;;;25.23;17.58;;;12.40;99.90;;;;;;5054451;28;20099;-60
2022/06/08 01:56:51;;;;;;;30.85;18.67;;;12.60;99.90;;;;;;5054130;28;20099;-60
2022/06/08 01:59:40;;;;;;;30.35;19.92;;;12.40;99.90;;;;;;5054091;28;20116;-61
2022/06/08 02:02:22;;;;;;;27.00;18.98;;;12.30;99.90;;;;;;5051384;28;20504;-60
2022/06/08 02:04:59;;;;;;;27.95;19.38;;;12.50;99.90;;;;;;5054028;28;20143;-60
2022/06/08 02:07:50;;;;;;;26.13;19.05;;;12.50;99.90;;;;;;5054000;28;20041;-60
2022/06/08 02:10:38;;;;;;;25.73;19.63;;;12.60;99.90;;;;;;5053836;28;20037;-60
2022/06/08 02:13:26;;;;;;;27.58;19.85;;;12.60;99.90;;;;;;5053247;28;20116;-59
2022/06/08 02:15:56;;;;;;;29.80;19.80;;;12.60;99.90;;;;;;5053730;28;20385;-59
2022/06/08 02:18:40;;;;;;;31.67;20.80;;;12.60;99.90;;;;;;5053594;28;20041;-59
2022/06/08 02:21:18;;;;;;;30.23;20.92;;;12.70;99.90;;;;;;5053695;28;20476;-60
2022/06/08 02:24:01;;;;;;;29.13;20.42;;;12.70;99.90;;;;;;5053277;28;20496;-59
2022/06/08 02:26:33;;;;;;;30.20;20.55;;;12.70;99.90;;;;;;5053680;28;20037;-59
2022/06/08 02:29:10;;;;;;;28.50;19.23;;;12.70;99.90;;;;;;5053491;28;20098;-60
2022/06/08 02:31:48;;;;;;;31.77;20.15;;;12.80;99.90;;;;;;5053431;28;20068;-59
2022/06/08 02:34:36;;;;;;;28.58;20.00;;;12.80;99.90;;;;;;5035114;28;20041;-60
2022/06/08 02:37:05;;;;;;;29.35;19.42;;;13.00;99.90;;;;;;5034908;28;20115;-59
2022/06/08 02:39:40;;;;;;;26.13;19.65;;;12.90;99.90;;;;;;5053374;28;20076;-59
2022/06/08 02:42:13;;;;;;;27.00;20.55;;;12.90;99.90;;;;;;5053538;28;20055;-59
2022/06/08 02:44:41;;;;;;;35.20;20.35;;;12.90;99.90;;;;;;5053200;28;20060;-59
2022/06/08 02:47:30;;;;;;;31.88;20.40;;;12.90;99.90;;;;;;5053077;28;20459;-59
2022/06/08 02:49:59;;;;;;;29.27;19.88;;;12.90;99.90;;;;;;5052781;28;20037;-59
2022/06/08 02:52:26;;;;;;;27.95;19.95;;;12.90;99.90;;;;;;5053284;28;20383;-59
2022/06/08 02:54:53;;;;;;;33.97;20.17;;;12.90;99.90;;;;;;5052904;28;20045;-60
2022/06/08 02:57:40;;;;;;;30.70;20.00;;;12.90;99.90;;;;;;5052619;28;20185;-59
2022/06/08 03:00:13;;;;;;;29.40;19.55;;;13.10;99.90;;;;;;5052730;28;20037;-59
2022/06/08 03:02:42;;;;;;;29.55;19.67;;;12.90;99.90;;;;;;5052422;28;20053;-59
2022/06/08 03:05:22;;;;;;;28.85;19.23;;;12.90;99.90;;;;;;5053032;28;20052;-59
2022/06/08 03:08:16;;;;;;;29.55;18.92;;;10.10;99.90;;;;;;5052884;28;20099;-59
2022/06/08 03:10:44;;;;;;;28.17;18.38;;;12.80;99.90;;;;;;5052719;28;20388;-59
2022/06/08 03:13:30;;;;;;;28.48;18.38;;;12.90;99.90;;;;;;5052347;28;20484;-59
2022/06/08 03:15:56;;;;;;;;;;;12.90;99.90;;;;;;5053043;28;20045;-59
2022/06/08 03:18:23;;;;;;;28.60;18.95;;;13.00;99.90;;;;;;5052362;28;20003;-59
2022/06/08 03:20:49;;;;;;;26.08;18.17;;;12.90;99.90;;;;;;5052320;28;20573;-59
2022/06/08 03:23:15;;;;;;;27.13;19.15;;;12.90;99.90;;;;;;5051629;28;20377;-59
2022/06/08 03:25:41;;;;;;;26.48;19.00;;;12.70;99.90;;;;;;5052283;28;20119;-60
2022/06/08 03:28:07;;;;;;;28.48;18.95;;;12.90;99.90;;;;;;5051940;28;20037;-59
2022/06/08 03:30:33;;;;;;;28.27;19.40;;;12.60;99.90;;;;;;5052203;28;20043;-59
2022/06/08 03:32:59;;;;;;;27.85;18.13;;;12.90;99.90;;;;;;5051934;28;20045;-59
2022/06/08 03:35:24;;;;;;;28.02;19.23;;;13.00;99.90;;;;;;5034307;28;20045;-59
2022/06/08 03:37:50;;;;;;;27.30;18.58;;;13.00;99.90;;;;;;5034014;28;20036;-59
2022/06/08 03:40:17;;;;;;;30.55;19.42;;;13.00;99.90;;;;;;5051997;28;20037;-59
2022/06/08 03:42:42;;;;;;;26.58;18.60;;;13.00;99.90;;;;;;5051730;28;20488;-59
2022/06/08 03:45:09;;;;;;;28.90;19.00;;;13.40;99.90;;;;;;5051685;28;20099;-59
2022/06/08 03:47:40;;;;;;;29.98;19.50;;;13.30;99.90;;;;;;5051896;28;20082;-54
2022/06/08 03:50:09;;;;;;;26.20;18.38;;;13.10;99.90;;;;;;5052080;28;20432;-54
2022/06/08 03:52:40;;;;;;;25.45;17.85;;;13.10;99.90;;;;;;5052107;28;20366;-54
2022/06/08 03:55:07;;;;;;;26.25;18.50;;;13.10;99.90;;;;;;5051960;28;20045;-54
2022/06/08 03:57:34;;;;;;;28.50;19.70;;;13.10;99.90;;;;;;5051602;28;20449;-53
2022/06/08 04:00:01;;;;;;;26.65;18.73;;;13.20;99.90;;;;;;5033972;28;20052;-50
2022/06/08 04:02:27;;;;;;;27.88;18.70;;;13.10;99.90;;;;;;5049897;28;20060;-51
2022/06/08 04:04:53;;;;;;;26.30;18.23;;;13.10;99.90;;;;;;5051771;28;20045;-54
2022/06/08 04:07:19;;;;;;;26.20;17.50;;;13.30;99.90;;;;;;5051259;28;20105;-53
2022/06/08 04:09:45;;;;;;;26.23;17.90;;;13.20;99.90;;;;;;5051410;28;20117;-54
2022/06/08 04:12:11;;;;;;;25.88;18.73;;;13.20;99.90;;;;;;5051943;28;20480;-53
2022/06/08 04:14:37;;;;;;;23.23;17.30;;;13.40;99.90;;;;;;5051630;28;20438;-59
2022/06/08 04:17:03;;;;;;;26.77;18.08;;;13.30;99.90;;;;;;5051258;28;20037;-59
2022/06/08 04:19:30;;;;;;;23.58;17.63;;;13.30;99.90;;;;;;5051332;28;20045;-61
2022/06/08 04:21:56;;;;;;;24.85;16.83;;;13.30;99.90;;;;;;5051900;28;20047;-60
2022/06/08 04:24:23;;;;;;;31.13;17.80;;;13.30;99.90;;;;;;5051572;28;20091;-59
2022/06/08 04:26:51;;;;;;;23.13;16.85;;;13.40;99.90;;;;;;5033326;28;20450;-60
2022/06/08 04:29:18;;;;;;;27.48;17.98;;;13.40;99.90;;;;;;5051564;28;20064;-59
2022/06/08 04:31:43;;;;;;;22.88;17.13;;;13.50;99.90;;;;;;5033529;28;20037;-59
2022/06/08 04:34:11;;;;;;;25.23;17.77;;;13.40;99.90;;;;;;5051915;28;20052;-53
2022/06/08 04:36:39;;;;;;;25.55;17.90;;;13.50;99.90;;;;;;5055458;28;20045;-54
2022/06/08 04:39:07;;;;;;;28.00;17.80;;;13.60;99.90;;;;;;5055347;28;20041;-54
2022/06/08 04:41:35;;;;;;;24.90;17.88;;;13.60;99.90;;;;;;5055099;28;20044;-52
2022/06/08 04:44:01;;;;;;;32.28;19.17;;;13.60;99.90;;;;;;5055559;28;20487;-54
2022/06/08 04:46:27;;;;;;;26.95;18.73;;;13.60;99.90;;;;;;5055306;28;20501;-54
2022/06/08 04:48:52;;;;;;;29.92;18.67;;;13.70;99.90;;;;;;5055311;28;20112;-53
2022/06/08 04:51:18;;;;;;;26.42;18.60;;;14.70;99.90;;;;;;5055199;28;20044;-53
2022/06/08 04:53:45;;;;;;;28.02;19.17;;;14.60;99.90;;;;;;5055250;28;20162;-53
2022/06/08 04:56:11;;;;;;;28.85;19.55;;;13.30;99.90;;;;;;5055132;28;20045;-61
2022/06/08 04:58:37;;;;;;;27.75;19.52;;;14.30;99.90;;;;;;5036934;28;20507;-59
2022/06/08 05:01:05;;;;;;;30.00;20.27;;;13.80;99.90;;;;;;5054612;28;20057;-59
2022/06/08 05:03:31;;;;;;;28.83;19.55;;;13.90;99.90;;;;;;5054908;28;20483;-59
2022/06/08 05:05:59;;;;;;;29.60;19.85;;;13.90;99.90;;;;;;5054628;28;20048;-61
2022/06/08 05:08:25;;;;;;;30.38;20.77;;;14.00;99.90;;;;;;5054863;28;20040;-53
2022/06/08 05:10:53;;;;;;;30.88;21.27;;;13.60;99.90;;;;;;5054873;28;20113;-59
2022/06/08 05:13:20;;;;;;;27.45;21.20;;;14.20;99.90;;;;;;5036853;28;20036;-59
2022/06/08 05:15:46;;;;;;;26.92;20.05;;;14.50;99.90;;;;;;5054713;28;20036;-59
2022/06/08 05:18:14;;;;;;;31.45;20.92;;;14.40;99.90;;;;;;5054641;28;20430;-59
2022/06/08 05:20:42;;;;;;;27.60;20.90;;;14.60;99.90;;;;;;5054363;28;20047;-59
2022/06/08 05:23:12;;;;;;;30.25;20.48;;;14.70;99.90;;;;;;5054315;28;20040;-59
2022/06/08 05:25:40;;;;;;;26.35;20.98;;;14.80;99.90;;;;;;5054861;28;20041;-52
2022/06/08 05:28:07;;;;;;;29.33;20.75;;;14.80;99.90;;;;;;5054565;28;20053;-54
2022/06/08 05:30:35;;;;;;;30.83;21.95;;;14.80;99.90;;;;;;5036347;28;20080;-59
2022/06/08 05:33:01;;;;;;;29.45;21.27;;;14.90;99.90;;;;;;5036363;28;20041;-59
2022/06/08 05:35:27;;;;;;;35.67;22.27;;;14.90;99.90;;;;;;5054337;28;20484;-59
2022/06/08 05:37:53;;;;;;;27.27;21.10;;;14.60;99.90;;;;;;5054378;28;20069;-60
2022/06/08 05:40:19;;;;;;;28.80;20.88;;;15.00;99.90;;;;;;5054276;28;20049;-60
2022/06/08 05:42:45;;;;;;;30.30;21.58;;;15.10;99.90;;;;;;5054240;28;20048;-60
2022/06/08 05:45:18;;;;;;;29.80;20.27;;;15.10;99.90;;;;;;5054470;28;20041;-60
2022/06/08 05:47:44;;;;;;;30.08;21.45;;;14.70;99.90;;;;;;5052702;28;20045;-60
2022/06/08 05:50:10;;;;;;;29.88;20.33;;;15.40;99.90;;;;;;5054064;28;20041;-60
2022/06/08 05:52:36;;;;;;;24.70;19.70;;;15.60;99.90;;;;;;5054011;28;20491;-60
2022/06/08 05:55:02;;;;;;;27.50;20.67;;;15.80;99.90;;;;;;5053989;28;20079;-60
2022/06/08 05:57:28;;;;;;;30.75;20.58;;;15.90;99.90;;;;;;5053933;28;20037;-60
2022/06/08 05:59:54;;;;;;;24.23;19.25;;;16.00;99.90;;;;;;5053903;28;20491;-60
2022/06/08 06:02:19;;;;;;;23.98;18.63;;;16.10;99.90;;;;;;5053147;28;20068;-53
2022/06/08 06:04:45;;;;;;;22.38;17.50;;;16.30;99.90;;;;;;5053746;28;20040;-55
2022/06/08 06:07:12;;;;;;;22.23;16.63;;;16.70;99.90;;;;;;5053543;28;20473;-55
2022/06/08 06:09:39;;;;;;;21.58;15.65;;;17.50;99.90;;;;;;5053294;28;20041;-54
2022/06/08 06:12:06;;;;;;;22.52;16.27;;;18.60;99.90;;;;;;5053573;28;20037;-53
2022/06/08 06:14:32;;;;;;;19.33;16.40;;;18.70;99.90;;;;;;5053777;28;20052;-54
2022/06/08 06:16:58;;;;;;;19.38;14.88;;;19.40;99.90;;;;;;5053695;28;20037;-54
2022/06/08 06:19:24;;;;;;;18.58;14.95;;;20.50;99.90;;;;;;5053318;28;20048;-54
2022/06/08 06:21:50;;;;;;;20.30;14.73;;;20.60;99.90;;;;;;5053357;28;20045;-53
2022/06/08 06:24:17;;;;;;;17.58;14.43;;;22.20;99.90;;;;;;5035578;28;20060;-54
2022/06/08 06:26:43;;;;;;;16.17;12.90;;;22.30;99.90;;;;;;5053376;28;20120;-54
2022/06/08 06:29:10;;;;;;;16.50;12.80;;;23.20;99.90;;;;;;5053305;28;20134;-54
2022/06/08 06:31:43;;;;;;;15.60;12.13;;;24.00;99.90;;;;;;5035492;28;20043;-54
2022/06/08 06:34:12;;;;;;;17.60;12.52;;;24.90;99.90;;;;;;5053289;28;20033;-55
2022/06/08 06:36:38;;;;;;;16.00;12.43;;;25.40;99.90;;;;;;5053461;28;20048;-55
2022/06/08 06:39:03;;;;;;;15.15;11.20;;;25.80;98.50;;;;;;5053125;28;20119;-55
2022/06/08 06:41:30;;;;;;;17.30;11.50;;;26.30;96.70;;;;;;5052769;28;20415;-55
2022/06/08 06:43:55;;;;;;;14.23;11.00;;;26.60;93.90;;;;;;5052803;28;20045;-55
2022/06/08 06:46:21;;;;;;;13.75;11.00;;;26.90;91.90;;;;;;5052707;28;20041;-54
2022/06/08 06:48:47;;;;;;;16.00;11.00;;;27.10;89.60;;;;;;5053164;28;20064;-54
2022/06/08 06:51:13;;;;;;;15.38;10.40;;;27.10;88.40;;;;;;5052980;28;20468;-55
2022/06/08 06:53:39;;;;;;;12.90;10.77;;;27.20;87.40;;;;;;5052810;28;20487;-55
2022/06/08 06:56:05;;;;;;;15.82;9.15;;;27.30;83.70;;;;;;5052849;28;20060;-55
2022/06/08 06:58:30;;;;;;;12.82;10.02;;;27.40;81.40;;;;;;5052989;28;20049;-55
2022/06/08 07:00:56;;;;;;;13.98;9.60;;;27.50;79.30;;;;;;5050086;28;20228;-55
2022/06/08 07:03:22;;;;;;;14.77;9.77;;;27.40;80.10;;;;;;5052655;28;20048;-55
2022/06/08 07:05:49;;;;;;;15.20;9.30;;;27.10;81.60;;;;;;5052221;28;20480;-55
2022/06/08 07:08:14;;;;;;;12.77;9.60;;;27.00;84.40;;;;;;5052917;28;20109;-55
2022/06/08 07:10:40;;;;;;;12.70;9.18;;;26.80;87.10;;;;;;5052525;28;20033;-55
2022/06/08 07:13:06;;;;;;;12.50;9.90;;;26.40;90.50;;;;;;5052376;28;20392;-55
2022/06/08 07:15:32;;;;;;;12.18;9.63;;;26.10;92.30;;;;;;5052751;28;20556;-55
2022/06/08 07:17:58;;;;;;;10.15;8.85;;;25.80;94.10;;;;;;5052611;28;20068;-55
2022/06/08 07:20:24;;;;;;;11.70;9.18;;;24.30;99.90;;;;;;5052254;28;20056;-59
2022/06/08 07:22:50;;;;;;;15.57;9.02;;;25.10;98.40;;;;;;5052031;28;20040;-59
2022/06/08 07:25:17;;;;;;;12.57;8.85;;;24.80;99.30;;;;;;5052287;28;20089;-60
2022/06/08 07:27:43;;;;;;;12.85;9.52;;;24.70;99.90;;;;;;5052412;28;20447;-59
2022/06/08 07:30:10;;;;;;;11.10;8.95;;;24.60;99.90;;;;;;5052165;28;20083;-56
2022/06/08 07:32:36;;;;;;;10.05;8.20;;;24.60;99.90;;;;;;5051992;28;20041;-55
2022/06/08 07:35:03;;;;;;;8.43;7.28;;;24.70;99.90;;;;;;5034233;28;20116;-55
2022/06/08 07:37:29;;;;;;;9.38;7.13;;;24.80;99.90;;;;;;5034125;28;20527;-55
2022/06/08 07:39:55;;;;;;;9.75;7.30;;;24.70;99.90;;;;;;5052155;28;20040;-55
2022/06/08 07:42:21;;;;;;;11.80;7.57;;;24.70;99.90;;;;;;5051709;28;20068;-55
2022/06/08 07:44:47;;;;;;;7.43;6.38;;;24.50;99.90;;;;;;5051632;28;20488;-59
2022/06/08 07:47:14;;;;;;;8.05;5.90;;;24.40;99.90;;;;;;5052003;28;20559;-60
2022/06/08 07:49:41;;;;;;;11.82;6.82;;;24.50;99.90;;;;;;5052059;28;20033;-59
2022/06/08 07:52:17;;;;;;;9.25;6.55;;;24.50;99.90;;;;;;5051932;28;20434;-59
2022/06/08 07:54:44;;;;;;;8.25;6.93;;;24.50;99.30;;;;;;5051743;28;20041;-60
2022/06/08 07:57:18;;;;;;;9.10;7.32;;;24.50;99.90;;;;;;5051540;28;20500;-59
2022/06/08 07:59:44;;;;;;;11.10;6.65;;;24.70;99.90;;;;;;5052084;28;20048;-60
2022/06/08 08:02:11;;;;;;;9.20;6.63;;;24.90;99.90;;;;;;5051315;28;20440;-59
2022/06/08 08:04:37;;;;;;;7.57;5.85;;;24.90;99.90;;;;;;5051751;28;20433;-59
2022/06/08 08:07:03;;;;;;;8.52;5.80;;;24.90;99.50;;;;;;5051216;28;20135;-60
2022/06/08 08:09:31;;;;;;;19.33;6.25;;;24.90;99.00;;;;;;5051358;28;20087;-59
2022/06/08 08:11:57;;;;;;;10.10;5.50;;;25.00;98.90;;;;;;5051608;28;20388;-59
2022/06/08 08:14:24;;;;;;;7.93;5.50;;;25.00;98.80;;;;;;5051612;28;20029;-60
2022/06/08 08:16:50;;;;;;;8.27;5.65;;;24.90;98.90;;;;;;5051590;28;20048;-60
2022/06/08 08:19:19;;;;;;;11.80;5.38;;;24.90;99.00;;;;;;5051749;28;20388;-60
2022/06/08 08:21:48;;;;;;;6.05;4.25;;;25.00;97.60;;;;;;5051387;28;20132;-60
2022/06/08 08:24:14;;;;;;;5.50;4.28;;;24.90;98.60;;;;;;5051355;28;20044;-60
2022/06/08 08:26:42;;;;;;;6.43;4.45;;;24.80;99.20;;;;;;5051406;28;20041;-60
2022/06/08 08:29:08;;;;;;;8.50;4.50;;;24.70;99.10;;;;;;5051570;28;20041;-60
2022/06/08 08:31:33;;;;;;;6.97;3.65;;;24.50;99.20;;;;;;5051724;28;20043;-60
2022/06/08 08:34:01;;;;;;;7.38;3.55;;;24.80;99.90;;;;;;5051186;28;20040;-59
2022/06/08 08:36:27;;;;;;;5.93;4.00;;;24.20;99.90;;;;;;5051329;28;20080;-59
2022/06/08 08:38:53;;;;;;;5.55;4.10;;;24.20;99.90;;;;;;5051298;28;20040;-59
2022/06/08 08:44:14;;;;;;;6.35;3.40;;;24.10;99.60;;;;;;5051873;28;20060;-60
2022/06/08 08:46:59;;;;;;;5.47;3.60;;;24.00;99.90;;;;;;5032936;28;20102;-60
2022/06/08 08:49:27;;;;;;;4.78;3.65;;;24.10;99.10;;;;;;5051339;28;20087;-60
2022/06/08 08:52:02;;;;;;;4.70;3.30;;;24.30;99.90;;;;;;5051324;28;20091;-60
2022/06/08 08:54:38;;;;;;;4.78;2.97;;;24.40;98.40;;;;;;5051585;28;20279;-59
2022/06/08 08:57:43;;;;;;;4.00;2.60;;;24.50;98.90;;;;;;5051564;28;20365;-60
2022/06/08 09:00:20;;;;;;;3.80;2.50;;;24.60;95.20;;;;;;5051352;28;20044;-60
2022/06/08 09:05:32;;;;;;;6.55;2.72;;;24.60;99.00;;;;;;5051232;28;20052;-59
2022/06/08 09:07:58;;;;;;;7.18;3.42;;;24.60;99.70;;;;;;5050729;28;20491;-59
2022/06/08 09:10:26;;;;;;;5.43;3.30;;;24.60;98.90;;;;;;5051069;28;20037;-59
2022/06/08 09:12:53;;;;;;;6.30;3.83;;;24.50;99.00;;;;;;5051147;28;20033;-60
2022/06/08 09:15:44;;;;;;;5.50;2.97;;;24.30;99.70;;;;;;5051098;28;20045;-59
2022/06/08 09:18:33;;;;;;;5.65;2.80;;;24.10;98.60;;;;;;5051020;28;20041;-60
2022/06/08 09:21:01;;;;;;;4.90;2.85;;;24.10;99.90;;;;;;5050971;28;20037;-59
2022/06/08 09:23:42;;;;;;;7.72;3.08;;;24.10;99.90;;;;;;5054662;28;20125;-59
2022/06/08 09:26:13;;;;;;;4.90;3.00;;;24.30;99.90;;;;;;5054708;28;20090;-59
2022/06/08 09:28:39;;;;;;;6.75;2.90;;;24.50;99.10;;;;;;5054558;28;20333;-59
2022/06/08 09:31:22;;;;;;;7.88;3.35;;;24.50;99.00;;;;;;5054364;28;20042;-59
2022/06/08 09:33:48;;;;;;;6.88;3.17;;;24.50;99.10;;;;;;5054121;28;20530;-59
2022/06/08 09:36:27;;;;;;;9.20;3.10;;;23.30;99.90;;;;;;5054379;28;20045;-59
2022/06/08 09:38:54;;;;;;;10.43;3.40;;;24.60;99.80;;;;;;5054159;28;20040;-59
2022/06/08 09:41:44;;;;;;;4.03;3.08;;;24.90;98.50;;;;;;5054239;28;20049;-59
2022/06/08 09:44:15;;;;;;;5.55;3.17;;;24.70;99.90;;;;;;5054243;28;20068;-59
2022/06/08 09:53:05;;;;;;;9.73;4.07;;;24.10;99.90;;;;;;5054018;28;20052;-59
2022/06/08 09:55:44;;;;;;;7.05;4.53;;;24.00;99.90;;;;;;5053835;28;20041;-55
2022/06/08 09:58:39;;;;;;;9.48;4.25;;;24.00;99.90;;;;;;5054274;28;20067;-56
2022/06/08 10:01:19;;;;;;;10.43;3.80;;;24.10;99.90;;;;;;5053845;28;20045;-56
2022/06/08 10:03:50;;;;;;;4.40;3.20;;;24.30;99.90;;;;;;5053848;28;20044;-55
2022/06/08 10:06:25;;;;;;;8.02;2.90;;;24.40;99.00;;;;;;5053611;28;20048;-55
2022/06/08 10:08:50;;;;;;;4.53;3.00;;;24.50;97.30;;;;;;5053845;28;20037;-55
2022/06/08 10:11:34;;;;;;;10.30;3.47;;;24.40;99.40;;;;;;5053955;28;20503;-55
2022/06/08 10:14:19;;;;;;;5.15;3.20;;;24.30;99.60;;;;;;5053587;28;20048;-55
2022/06/08 10:16:58;;;;;;;6.68;3.28;;;24.30;99.90;;;;;;5053610;28;20396;-55
2022/06/08 10:19:31;;;;;;;13.00;3.22;;;24.20;99.90;;;;;;5053214;28;20045;-56
2022/06/08 10:21:59;;;;;;;6.57;3.65;;;24.30;99.90;;;;;;5053561;28;20037;-55
2022/06/08 10:24:29;;;;;;;5.00;3.05;;;24.30;99.90;;;;;;5053478;28;20345;-55
2022/06/08 10:27:16;;;;;;;6.90;3.33;;;24.40;99.90;;;;;;5053279;28;20488;-55
2022/06/08 10:30:00;;;;;;;4.05;3.10;;;24.20;99.90;;;;;;5053429;28;20418;-55
2022/06/08 10:32:32;;;;;;;5.07;3.35;;;24.40;98.90;;;;;;5052824;28;20083;-55
2022/06/08 10:35:00;;;;;;;8.82;3.47;;;24.50;99.30;;;;;;5034873;28;20041;-55
2022/06/08 10:37:36;;;;;;;6.25;3.22;;;24.40;99.00;;;;;;5052921;28;20439;-56
2022/06/08 10:40:08;;;;;;;4.95;3.40;;;24.50;99.90;;;;;;5053394;28;20049;-55
2022/06/08 10:42:40;;;;;;;4.88;3.25;;;24.50;99.00;;;;;;5052780;28;20543;-55
2022/06/08 10:45:23;;;;;;;8.48;3.25;;;24.50;98.80;;;;;;5035073;28;20053;-55
2022/06/08 10:48:04;;;;;;;6.53;3.20;;;24.30;99.10;;;;;;5053155;28;20430;-55
2022/06/08 10:50:35;;;;;;;5.05;3.10;;;24.20;96.60;;;;;;5034747;28;20052;-55
2022/06/08 10:56:28;;;;;;;9.10;3.20;;;24.30;99.40;;;;;;5052704;28;20507;-56
2022/06/08 10:59:03;;;;;;;6.95;3.50;;;24.60;99.00;;;;;;5053057;28;20431;-56
2022/06/08 11:01:35;;;;;;;7.20;3.60;;;24.80;98.70;;;;;;5052441;28;20142;-55
2022/06/08 11:04:02;;;;;;;7.93;3.80;;;24.80;97.80;;;;;;5052717;28;20037;-55
2022/06/08 11:06:57;;;;;;;6.60;3.00;;;24.80;97.80;;;;;;5052461;28;20131;-55
2022/06/08 11:09:34;;;;;;;4.32;3.10;;;24.70;96.50;;;;;;5052509;28;20052;-55
2022/06/08 11:12:12;;;;;;;6.93;3.10;;;24.60;97.40;;;;;;5052801;28;20055;-55
2022/06/08 11:14:43;;;;;;;5.85;3.58;;;24.70;98.10;;;;;;5052491;28;20041;-55
2022/06/08 11:17:32;;;;;;;5.72;2.90;;;24.80;96.50;;;;;;5052500;28;20080;-55
2022/06/08 11:20:18;;;;;;;5.38;2.75;;;24.80;96.70;;;;;;5012756;28;20397;-55
2022/06/08 11:23:00;;;;;;;8.68;2.70;;;24.90;96.60;;;;;;5035317;28;20121;-59
2022/06/08 11:25:43;;;;;;;5.57;2.58;;;24.90;94.80;;;;;;5052322;28;20106;-59
2022/06/08 11:28:29;;;;;;;6.28;2.83;;;24.90;95.60;;;;;;5052503;28;20413;-59
2022/06/08 11:31:11;;;;;;;4.63;2.53;;;24.70;93.90;;;;;;5052237;28;20041;-59
2022/06/08 11:34:10;;;;;;;7.15;2.47;;;24.60;95.10;;;;;;5052229;28;20106;-59
2022/06/08 11:37:12;;;;;;;4.97;2.80;;;24.70;96.10;;;;;;5052208;28;20123;-59
2022/06/08 11:39:54;;;;;;;11.63;2.70;;;24.70;91.50;;;;;;5052087;28;20040;-59
2022/06/08 11:42:37;;;;;;;6.05;2.45;;;24.60;94.40;;;;;;5051704;28;20049;-59
2022/06/08 11:45:21;;;;;;;3.60;2.42;;;24.60;95.10;;;;;;5051182;28;20045;-59
2022/06/08 11:47:51;;;;;;;6.10;2.70;;;24.60;95.40;;;;;;5051942;28;20072;-59
2022/06/08 11:50:28;;;;;;;6.30;2.80;;;24.50;95.30;;;;;;5052178;28;20427;-59
2022/06/08 11:53:01;;;;;;;6.53;2.90;;;24.40;94.80;;;;;;5051867;28;20443;-59
2022/06/08 11:55:29;;;;;;;7.45;3.17;;;24.20;95.60;;;;;;5051588;28;20043;-59
2022/06/08 11:58:09;;;;;;;3.78;2.75;;;24.00;96.90;;;;;;5033686;28;20049;-59
2022/06/08 12:00:52;;;;;;;8.68;3.22;;;23.80;97.30;;;;;;5051526;28;20045;-59
2022/06/08 12:03:34;;;;;;;5.18;2.50;;;23.70;97.70;;;;;;5051604;28;20052;-59
2022/06/08 12:06:08;;;;;;;4.43;2.03;;;23.60;99.40;;;;;;5051628;28;20125;-59
2022/06/08 12:08:40;;;;;;;7.80;1.70;;;23.40;99.00;;;;;;5033647;28;20084;-59
2022/06/08 12:11:09;;;;;;;4.78;1.55;;;23.10;98.70;;;;;;5033878;28;20044;-59
2022/06/08 12:13:35;;;;;;;4.10;1.50;;;22.60;99.90;;;;;;5033495;28;20102;-59
2022/06/08 12:16:30;;;;;;;2.20;1.30;;;22.10;99.90;;;;;;5033791;28;20041;-59
2022/06/08 12:19:10;;;;;;;5.70;1.50;;;21.60;99.90;;;;;;5051892;28;20076;-59
2022/06/08 12:21:38;;;;;;;3.67;1.30;;;21.20;99.90;;;;;;5033544;28;20037;-59
2022/06/08 12:24:07;;;;;;;3.75;1.30;;;20.80;99.90;;;;;;5051597;28;20033;-59
2022/06/08 12:26:49;;;;;;;3.35;1.40;;;20.60;99.90;;;;;;5051489;28;20037;-55
2022/06/08 12:29:39;;;;;;;5.00;1.38;;;20.40;99.90;;;;;;5051379;28;20499;-55
2022/06/08 12:32:09;;;;;;;5.88;1.90;;;20.30;99.90;;;;;;5033931;28;20049;-55
2022/06/08 12:34:45;;;;;;;4.60;1.70;;;20.10;99.90;;;;;;5051489;28;20052;-55
2022/06/08 12:37:33;;;;;;;5.38;1.70;;;20.10;99.90;;;;;;5033337;28;20256;-56
2022/06/08 12:40:16;;;;;;;5.93;2.17;;;20.10;99.90;;;;;;5051540;28;20071;-56
2022/06/08 12:43:00;;;;;;;6.07;1.92;;;20.10;99.90;;;;;;5051393;28;20377;-56
2022/06/08 12:45:33;;;;;;;4.15;1.80;;;20.10;99.90;;;;;;5033370;28;20050;-55
2022/06/08 12:48:18;;;;;;;9.82;2.30;;;20.00;99.90;;;;;;5033719;28;20430;-56
2022/06/08 12:50:44;;;;;;;5.95;2.40;;;20.00;99.90;;;;;;5033345;28;20045;-55
2022/06/08 12:53:10;;;;;;;5.28;2.20;;;20.10;99.90;;;;;;5051037;28;20120;-55
2022/06/08 12:55:39;;;;;;;9.55;2.70;;;20.00;99.90;;;;;;5051936;28;20040;-56
2022/06/08 12:58:06;;;;;;;8.73;2.47;;;20.10;99.90;;;;;;5054846;28;20047;-56
2022/06/08 13:00:33;;;;;;;7.03;2.40;;;20.10;99.90;;;;;;5054835;28;20080;-55
2022/06/08 13:03:02;;;;;;;6.85;2.35;;;20.30;99.90;;;;;;5054710;28;20104;-55
2022/06/08 13:05:35;;;;;;;7.63;2.30;;;20.30;99.90;;;;;;5036976;28;20045;-55
2022/06/08 13:08:02;;;;;;;6.55;2.33;;;20.50;99.90;;;;;;5054898;28;20033;-55
2022/06/08 13:10:30;;;;;;;8.40;2.50;;;20.60;99.90;;;;;;5055063;28;20043;-55
2022/06/08 13:13:03;;;;;;;9.63;2.80;;;20.70;99.90;;;;;;5054866;28;20051;-55
2022/06/08 13:15:39;;;;;;;8.60;2.88;;;20.80;99.90;;;;;;5054519;28;20102;-55